createdAt,value
2022-10-12T00:02:20.012Z,5.20
2022-10-12T00:04:46.820Z,5.20
2022-10-12T00:07:13.640Z,5.20
2022-10-12T00:09:41.282Z,5.20
2022-10-12T00:12:08.106Z,5.10
2022-10-12T00:14:38.372Z,5.10
2022-10-12T00:17:05.207Z,5.10
2022-10-12T00:19:32.151Z,5.10
2022-10-12T00:21:59.035Z,5.00
2022-10-12T00:24:26.029Z,5.00
2022-10-12T00:26:52.862Z,5.00
2022-10-12T00:29:19.759Z,5.00
2022-10-12T00:31:46.607Z,5.00
2022-10-12T00:34:13.521Z,4.90
2022-10-12T00:36:40.583Z,4.90
2022-10-12T00:39:09.157Z,4.90
2022-10-12T00:41:40.441Z,4.80
2022-10-12T00:44:42.932Z,4.80
2022-10-12T00:47:41.677Z,4.80
2022-10-12T00:50:11.513Z,4.80
2022-10-12T00:52:50.161Z,4.90
2022-10-12T00:55:20.129Z,4.90
2022-10-12T00:57:49.768Z,4.90
2022-10-12T01:00:17.351Z,4.90
2022-10-12T01:02:46.780Z,4.90
2022-10-12T01:05:13.904Z,5.00
2022-10-12T01:07:41.084Z,5.00
2022-10-12T01:10:08.257Z,4.90
2022-10-12T01:12:36.327Z,5.00
2022-10-12T01:15:04.265Z,5.10
2022-10-12T01:17:43.209Z,5.30
2022-10-12T01:20:28.105Z,5.30
2022-10-12T01:23:12.389Z,5.20
2022-10-12T01:26:11.036Z,5.10
2022-10-12T01:29:04.874Z,5.10
2022-10-12T01:31:46.982Z,5.10
2022-10-12T01:34:38.987Z,5.00
2022-10-12T01:37:27.862Z,5.00
2022-10-12T01:39:57.261Z,5.00
2022-10-12T01:42:33.480Z,5.00
2022-10-12T01:45:09.515Z,5.00
2022-10-12T01:47:38.612Z,5.00
2022-10-12T01:50:08.768Z,4.90
2022-10-12T01:52:59.773Z,4.90
2022-10-12T01:55:38.742Z,4.80
2022-10-12T01:58:17.567Z,4.70
2022-10-12T02:00:55.182Z,4.70
2022-10-12T02:03:46.601Z,4.70
2022-10-12T02:06:18.744Z,4.90
2022-10-12T02:08:48.992Z,4.90
2022-10-12T02:11:18.648Z,5.00
2022-10-12T02:14:03.546Z,5.20
2022-10-12T02:16:37.597Z,5.10
2022-10-12T02:19:06.751Z,5.00
2022-10-12T02:21:34.954Z,4.90
2022-10-12T02:24:06.125Z,4.80
2022-10-12T02:26:37.544Z,4.90
2022-10-12T02:29:10.032Z,4.80
2022-10-12T02:31:46.793Z,4.90
2022-10-12T02:34:18.823Z,4.90
2022-10-12T02:37:06.143Z,4.90
2022-10-12T02:39:47.685Z,4.80
2022-10-12T02:42:27.098Z,4.80
2022-10-12T02:44:55.777Z,4.90
2022-10-12T02:47:26.365Z,4.90
2022-10-12T02:49:55.453Z,4.90
2022-10-12T02:52:23.779Z,5.00
2022-10-12T02:54:50.767Z,5.10
2022-10-12T02:57:17.629Z,5.10
2022-10-12T02:59:44.791Z,5.00
2022-10-12T03:02:11.767Z,5.10
2022-10-12T03:04:38.753Z,5.00
2022-10-12T03:07:05.605Z,5.00
2022-10-12T03:09:32.404Z,5.00
2022-10-12T03:11:59.261Z,5.00
2022-10-12T03:14:27.466Z,5.00
2022-10-12T03:16:54.242Z,5.00
2022-10-12T03:19:21.091Z,4.90
2022-10-12T03:21:47.886Z,4.90
2022-10-12T03:24:14.776Z,4.90
2022-10-12T03:26:41.740Z,4.80
2022-10-12T03:29:09.435Z,4.80
2022-10-12T03:31:36.400Z,4.70
2022-10-12T03:34:03.389Z,4.70
2022-10-12T03:36:30.753Z,4.60
2022-10-12T03:38:57.580Z,4.60
2022-10-12T03:41:24.493Z,4.60
2022-10-12T03:43:51.275Z,4.70
2022-10-12T03:46:18.154Z,4.70
2022-10-12T03:48:44.987Z,4.60
2022-10-12T03:51:11.870Z,4.50
2022-10-12T03:53:43.016Z,4.50
2022-10-12T03:56:12.788Z,4.40
2022-10-12T03:58:39.610Z,4.50
2022-10-12T04:01:06.442Z,4.40
2022-10-12T04:03:33.314Z,4.40
2022-10-12T04:06:00.118Z,4.40
2022-10-12T04:08:27.287Z,4.40
2022-10-12T04:10:54.505Z,4.40
2022-10-12T04:13:21.537Z,4.40
2022-10-12T04:15:48.365Z,4.30
2022-10-12T04:18:15.374Z,4.30
2022-10-12T04:20:42.222Z,4.30
2022-10-12T04:23:09.150Z,4.40
2022-10-12T04:25:36.069Z,4.30
2022-10-12T04:28:02.988Z,4.20
2022-10-12T04:30:29.916Z,4.20
2022-10-12T04:32:56.792Z,4.10
2022-10-12T04:35:24.096Z,4.10
2022-10-12T04:37:50.885Z,4.00
2022-10-12T04:40:17.792Z,4.00
2022-10-12T04:42:44.625Z,3.90
2022-10-12T04:45:11.551Z,4.00
2022-10-12T04:47:38.639Z,4.00
2022-10-12T04:50:06.380Z,4.00
2022-10-12T04:52:33.510Z,4.00
2022-10-12T04:55:00.465Z,4.00
2022-10-12T04:57:27.310Z,4.00
2022-10-12T04:59:54.094Z,4.10
2022-10-12T05:02:20.911Z,4.00
2022-10-12T05:04:47.730Z,4.00
2022-10-12T05:07:14.717Z,3.90
2022-10-12T05:09:41.538Z,3.90
2022-10-12T05:12:08.448Z,3.80
2022-10-12T05:14:36.287Z,3.80
2022-10-12T05:17:03.522Z,3.90
2022-10-12T05:19:30.481Z,3.90
2022-10-12T05:21:57.380Z,3.90
2022-10-12T05:24:24.435Z,3.90
2022-10-12T05:26:51.262Z,3.80
2022-10-12T05:29:18.029Z,3.80
2022-10-12T05:31:44.851Z,3.70
2022-10-12T05:34:11.652Z,3.70
2022-10-12T05:36:38.456Z,3.60
2022-10-12T05:39:05.278Z,3.60
2022-10-12T05:41:32.212Z,3.60
2022-10-12T05:43:59.025Z,3.50
2022-10-12T05:46:25.988Z,3.60
2022-10-12T05:48:52.742Z,3.50
2022-10-12T05:51:19.833Z,3.50
2022-10-12T05:53:46.649Z,3.50
2022-10-12T05:56:13.621Z,3.70
2022-10-12T05:58:40.507Z,3.70
2022-10-12T06:01:10.457Z,3.70
2022-10-12T06:03:37.532Z,3.60
2022-10-12T06:06:06.535Z,3.50
2022-10-12T06:08:34.788Z,3.50
2022-10-12T06:11:02.408Z,3.60
2022-10-12T06:13:29.425Z,3.90
2022-10-12T06:15:56.473Z,4.00
2022-10-12T06:18:23.300Z,4.00
2022-10-12T06:21:03.973Z,4.00
2022-10-12T06:23:39.396Z,4.10
2022-10-12T06:26:06.472Z,4.40
2022-10-12T06:28:33.414Z,4.50
2022-10-12T06:31:00.992Z,4.80
2022-10-12T06:33:28.500Z,5.10
2022-10-12T06:35:55.853Z,5.70
2022-10-12T06:38:23.280Z,6.00
2022-10-12T06:40:50.132Z,6.30
2022-10-12T06:43:16.954Z,7.20
2022-10-12T06:45:43.791Z,7.70
2022-10-12T06:48:13.786Z,8.10
2022-10-12T06:50:43.036Z,8.30
2022-10-12T06:53:09.854Z,8.70
2022-10-12T06:55:40.078Z,9.20
2022-10-12T06:58:06.880Z,9.70
2022-10-12T07:00:34.054Z,10.00
2022-10-12T07:03:00.839Z,10.50
2022-10-12T07:05:27.847Z,10.90
2022-10-12T07:07:54.708Z,10.90
2022-10-12T07:10:21.749Z,10.70
2022-10-12T07:12:48.609Z,10.50
2022-10-12T07:15:15.606Z,10.30
2022-10-12T07:17:42.565Z,9.90
2022-10-12T07:20:09.605Z,9.70
2022-10-12T07:22:36.434Z,10.10
2022-10-12T07:25:03.447Z,10.50
2022-10-12T07:27:30.317Z,10.90
2022-10-12T07:29:57.360Z,11.50
2022-10-12T07:32:24.187Z,11.80
2022-10-12T07:34:51.078Z,12.20
2022-10-12T07:37:17.931Z,12.20
2022-10-12T07:39:44.793Z,12.10
2022-10-12T07:42:14.412Z,12.20
2022-10-12T07:44:45.102Z,11.90
2022-10-12T07:47:11.903Z,11.80
2022-10-12T07:49:38.714Z,11.70
2022-10-12T07:52:05.525Z,11.50
2022-10-12T07:54:32.871Z,11.30
2022-10-12T07:56:59.685Z,11.20
2022-10-12T07:59:26.677Z,11.00
2022-10-12T08:01:53.481Z,11.10
2022-10-12T08:04:20.490Z,11.10
2022-10-12T08:06:47.326Z,11.70
2022-10-12T08:09:14.243Z,12.10
2022-10-12T08:11:41.631Z,12.50
2022-10-12T08:14:14.721Z,12.80
2022-10-12T08:16:42.851Z,13.00
2022-10-12T08:19:10.050Z,13.20
2022-10-12T08:21:36.840Z,13.30
2022-10-12T08:24:03.881Z,13.50
2022-10-12T08:26:30.984Z,13.30
2022-10-12T08:28:57.851Z,13.00
2022-10-12T08:31:24.908Z,12.70
2022-10-12T08:33:51.755Z,12.40
2022-10-12T08:36:18.921Z,12.00
2022-10-12T08:38:54.066Z,11.70
2022-10-12T08:41:32.857Z,11.60
2022-10-12T08:44:46.168Z,11.40
2022-10-12T08:47:29.998Z,11.40
2022-10-12T08:49:57.002Z,11.20
2022-10-12T08:52:28.300Z,11.20
2022-10-12T08:55:00.344Z,11.20
2022-10-12T08:57:27.257Z,11.10
2022-10-12T08:59:54.096Z,11.10
2022-10-12T09:02:49.414Z,11.00
2022-10-12T09:05:23.523Z,10.90
2022-10-12T09:08:03.160Z,10.90
2022-10-12T09:10:46.639Z,11.00
2022-10-12T09:13:42.463Z,11.10
2022-10-12T09:16:12.430Z,11.10
2022-10-12T09:18:46.410Z,11.10
2022-10-12T09:21:18.437Z,11.20
2022-10-12T09:23:45.645Z,11.30
2022-10-12T09:26:19.289Z,11.30
2022-10-12T09:28:53.590Z,11.30
2022-10-12T09:31:41.962Z,11.40
2022-10-12T09:34:10.373Z,11.30
2022-10-12T09:36:41.670Z,11.30
2022-10-12T09:39:20.110Z,11.30
2022-10-12T09:41:49.238Z,11.30
2022-10-12T09:44:21.676Z,11.30
2022-10-12T09:47:23.823Z,11.30
2022-10-12T09:49:52.910Z,11.40
2022-10-12T09:52:24.510Z,11.40
2022-10-12T09:54:54.507Z,11.50
2022-10-12T09:57:36.744Z,11.60
2022-10-12T10:00:27.228Z,11.60
2022-10-12T10:02:55.405Z,11.70
2022-10-12T10:05:28.745Z,11.60
2022-10-12T10:08:14.144Z,11.70
2022-10-12T10:11:02.030Z,11.90
2022-10-12T10:13:31.246Z,12.00
2022-10-12T10:16:09.912Z,12.00
2022-10-12T10:18:44.935Z,12.10
2022-10-12T10:21:14.574Z,12.30
2022-10-12T10:23:58.213Z,12.30
2022-10-12T10:26:27.944Z,12.40
2022-10-12T10:29:16.887Z,12.40
2022-10-12T10:31:46.389Z,12.50
2022-10-12T10:34:16.187Z,12.50
2022-10-12T10:36:53.217Z,12.50
2022-10-12T10:39:28.828Z,12.70
2022-10-12T10:41:56.267Z,12.70
2022-10-12T10:44:25.805Z,12.80
2022-10-12T10:46:55.464Z,12.60
2022-10-12T10:49:45.712Z,12.70
2022-10-12T10:52:31.763Z,12.70
2022-10-12T10:55:18.882Z,12.70
2022-10-12T10:57:55.393Z,12.80
2022-10-12T11:00:40.283Z,12.80
2022-10-12T11:03:42.393Z,12.70
2022-10-12T11:06:28.306Z,12.90
2022-10-12T11:09:03.863Z,12.90
2022-10-12T11:11:35.122Z,12.90
2022-10-12T11:14:16.408Z,13.00
2022-10-12T11:16:50.700Z,13.10
2022-10-12T11:19:36.710Z,13.30
2022-10-12T11:22:18.749Z,13.30
2022-10-12T11:24:58.817Z,13.30
2022-10-12T11:27:30.441Z,13.50
2022-10-12T11:30:09.192Z,13.50
2022-10-12T11:32:41.916Z,13.70
2022-10-12T11:35:35.788Z,13.70
2022-10-12T11:38:15.340Z,13.80
2022-10-12T11:41:13.723Z,13.90
2022-10-12T11:44:03.769Z,13.90
2022-10-12T11:47:02.506Z,14.00
2022-10-12T11:49:37.308Z,14.00
2022-10-12T11:52:09.829Z,14.00
2022-10-12T11:54:36.585Z,14.00
2022-10-12T11:57:13.602Z,14.10
2022-10-12T11:59:49.718Z,14.30
2022-10-12T12:02:28.473Z,14.50
2022-10-12T12:04:56.412Z,14.60
2022-10-12T12:07:23.384Z,14.70
2022-10-12T12:09:51.518Z,14.90
2022-10-12T12:12:21.620Z,15.10
2022-10-12T12:15:08.709Z,15.30
2022-10-12T12:17:35.953Z,15.60
2022-10-12T12:20:23.813Z,15.90
2022-10-12T12:22:52.352Z,16.10
2022-10-12T12:25:26.163Z,16.30
2022-10-12T12:28:00.487Z,16.20
2022-10-12T12:30:39.651Z,16.00
2022-10-12T12:33:21.812Z,15.90
2022-10-12T12:36:01.708Z,15.90
2022-10-12T12:38:50.775Z,15.80
2022-10-12T12:41:19.709Z,15.80
2022-10-12T12:43:56.491Z,15.90
2022-10-12T12:46:26.567Z,15.70
2022-10-12T12:48:53.303Z,15.70
2022-10-12T12:51:26.224Z,15.60
2022-10-12T12:53:59.067Z,15.60
2022-10-12T12:56:51.129Z,15.70
2022-10-12T13:00:00.114Z,15.70
2022-10-12T13:03:04.470Z,15.80
2022-10-12T13:05:50.483Z,15.90
2022-10-12T13:08:36.020Z,15.90
2022-10-12T13:11:40.605Z,15.80
2022-10-12T13:14:28.465Z,15.90
2022-10-12T13:17:35.141Z,15.80
2022-10-12T13:20:22.812Z,15.80
2022-10-12T13:22:54.099Z,15.70
2022-10-12T13:25:29.599Z,15.70
2022-10-12T13:27:58.153Z,15.60
2022-10-12T13:30:41.228Z,15.60
2022-10-12T13:33:11.311Z,15.50
2022-10-12T13:35:53.665Z,15.40
2022-10-12T13:38:27.152Z,15.60
2022-10-12T13:41:14.589Z,15.50
2022-10-12T13:44:04.267Z,15.70
2022-10-12T13:46:47.363Z,15.80
2022-10-12T13:49:24.679Z,16.00
2022-10-12T13:51:57.613Z,16.10
2022-10-12T13:54:40.168Z,16.10
2022-10-12T13:57:34.491Z,16.10
2022-10-12T14:00:09.071Z,16.10
2022-10-12T14:02:36.445Z,16.10
2022-10-12T14:05:06.458Z,16.10
2022-10-12T14:07:37.619Z,16.10
2022-10-12T14:10:08.361Z,16.10
2022-10-12T14:12:36.649Z,16.10
2022-10-12T14:15:05.551Z,16.10
2022-10-12T14:17:32.395Z,16.10
2022-10-12T14:20:28.803Z,16.30
2022-10-12T14:22:58.430Z,16.20
2022-10-12T14:25:28.068Z,16.40
2022-10-12T14:27:58.486Z,16.40
2022-10-12T14:30:52.112Z,16.50
2022-10-12T14:33:19.572Z,16.50
2022-10-12T14:35:48.923Z,16.30
2022-10-12T14:38:34.396Z,16.10
2022-10-12T14:41:33.612Z,15.90
2022-10-12T14:44:10.898Z,15.70
2022-10-12T14:47:02.875Z,15.50
2022-10-12T14:49:51.284Z,15.50
2022-10-12T14:52:25.959Z,15.30
2022-10-12T14:54:58.383Z,15.20
2022-10-12T14:57:28.139Z,15.10
2022-10-12T14:59:55.020Z,14.90
2022-10-12T15:02:27.747Z,14.80
2022-10-12T15:04:56.354Z,14.70
2022-10-12T15:07:29.860Z,14.60
2022-10-12T15:09:57.035Z,14.50
2022-10-12T15:12:24.698Z,14.40
2022-10-12T15:14:54.845Z,14.30
2022-10-12T15:17:21.873Z,14.20
2022-10-12T15:19:50.209Z,14.20
2022-10-12T15:22:23.482Z,14.30
2022-10-12T15:24:52.216Z,14.40
2022-10-12T15:27:19.652Z,14.40
2022-10-12T15:29:48.122Z,14.30
2022-10-12T15:32:17.383Z,14.20
2022-10-12T15:34:44.875Z,14.10
2022-10-12T15:37:11.736Z,14.00
2022-10-12T15:39:38.938Z,14.10
2022-10-12T15:42:05.915Z,14.00
2022-10-12T15:44:40.121Z,13.90
2022-10-12T15:47:08.590Z,13.90
2022-10-12T15:49:35.443Z,13.80
2022-10-12T15:52:02.304Z,13.80
2022-10-12T15:54:29.121Z,13.90
2022-10-12T15:56:55.888Z,13.80
2022-10-12T15:59:23.057Z,13.80
2022-10-12T16:01:49.844Z,13.80
2022-10-12T16:04:17.810Z,13.80
2022-10-12T16:06:44.663Z,13.70
2022-10-12T16:09:11.485Z,13.60
2022-10-12T16:11:38.544Z,13.60
2022-10-12T16:14:05.428Z,13.40
2022-10-12T16:16:32.337Z,13.30
2022-10-12T16:18:59.459Z,13.30
2022-10-12T16:21:29.076Z,13.20
2022-10-12T16:23:55.957Z,13.20
2022-10-12T16:26:22.767Z,13.10
2022-10-12T16:28:49.622Z,13.00
2022-10-12T16:31:18.011Z,12.90
2022-10-12T16:33:45.513Z,12.80
2022-10-12T16:36:15.241Z,12.70
2022-10-12T16:38:43.441Z,12.60
2022-10-12T16:41:12.273Z,12.50
2022-10-12T16:43:39.162Z,12.40
2022-10-12T16:46:06.781Z,12.40
2022-10-12T16:48:39.191Z,12.30
2022-10-12T16:51:08.609Z,12.20
2022-10-12T16:53:38.396Z,12.10
2022-10-12T16:56:05.517Z,12.00
2022-10-12T16:58:33.058Z,12.00
2022-10-12T17:01:11.367Z,11.90
2022-10-12T17:03:38.351Z,11.80
2022-10-12T17:06:05.476Z,11.70
2022-10-12T17:08:35.584Z,11.60
2022-10-12T17:11:10.894Z,11.60
2022-10-12T17:13:38.868Z,11.50
2022-10-12T17:16:24.772Z,11.40
2022-10-12T17:19:12.795Z,11.30
2022-10-12T17:21:42.173Z,11.20
2022-10-12T17:24:10.654Z,11.00
2022-10-12T17:26:40.266Z,10.90
2022-10-12T17:29:12.146Z,10.80
2022-10-12T17:31:39.376Z,10.80
2022-10-12T17:34:07.530Z,10.60
2022-10-12T17:36:35.417Z,10.60
2022-10-12T17:39:02.266Z,10.50
2022-10-12T17:41:29.630Z,10.60
2022-10-12T17:43:57.914Z,10.60
2022-10-12T17:46:28.277Z,10.50
2022-10-12T17:48:56.532Z,10.40
2022-10-12T17:51:23.389Z,10.40
2022-10-12T17:53:50.315Z,10.30
2022-10-12T17:56:17.897Z,10.20
2022-10-12T17:58:44.748Z,10.10
2022-10-12T18:01:15.587Z,10.10
2022-10-12T18:03:45.430Z,10.20
2022-10-12T18:06:15.991Z,10.20
2022-10-12T18:08:43.732Z,10.10
2022-10-12T18:11:11.790Z,9.90
2022-10-12T18:13:38.953Z,9.80
2022-10-12T18:16:10.788Z,9.70
2022-10-12T18:18:38.706Z,9.70
2022-10-12T18:21:07.201Z,9.60
2022-10-12T18:23:34.304Z,9.60
2022-10-12T18:26:13.285Z,9.50
2022-10-12T18:28:41.454Z,9.40
2022-10-12T18:31:08.485Z,9.30
2022-10-12T18:33:35.319Z,9.20
2022-10-12T18:36:06.955Z,9.20
2022-10-12T18:38:34.535Z,9.10
2022-10-12T18:41:06.489Z,9.20
2022-10-12T18:43:34.329Z,9.20
2022-10-12T18:46:08.461Z,9.20
2022-10-12T18:48:35.700Z,9.30
2022-10-12T18:51:07.844Z,9.40
2022-10-12T18:53:35.436Z,9.50
2022-10-12T18:56:04.186Z,9.50
2022-10-12T18:58:31.521Z,9.50
2022-10-12T19:00:58.630Z,9.60
2022-10-12T19:03:25.693Z,9.70
2022-10-12T19:05:52.564Z,9.70
2022-10-12T19:08:19.474Z,9.70
2022-10-12T19:10:46.301Z,9.80
2022-10-12T19:13:13.125Z,9.80
2022-10-12T19:15:40.044Z,9.70
2022-10-12T19:18:06.852Z,9.70
2022-10-12T19:20:36.562Z,9.70
2022-10-12T19:23:03.535Z,9.60
2022-10-12T19:25:30.557Z,9.60
2022-10-12T19:27:57.424Z,9.50
2022-10-12T19:30:24.263Z,9.50
2022-10-12T19:32:51.143Z,9.30
2022-10-12T19:35:17.953Z,9.20
2022-10-12T19:37:47.033Z,9.10
2022-10-12T19:40:14.743Z,9.10
2022-10-12T19:42:43.349Z,9.00
2022-10-12T19:45:10.646Z,8.90
2022-10-12T19:47:37.491Z,8.90
2022-10-12T19:50:07.707Z,8.80
2022-10-12T19:52:34.761Z,8.90
2022-10-12T19:55:01.641Z,8.80
2022-10-12T20:25:53.577Z,8.40
2022-10-12T20:28:21.877Z,8.30
2022-10-12T20:30:49.033Z,8.30
2022-10-12T20:33:16.199Z,8.20
2022-10-12T20:35:50.193Z,8.20
2022-10-12T20:38:18.029Z,8.20
2022-10-12T20:40:48.541Z,8.20
2022-10-12T20:43:15.990Z,8.10
2022-10-12T20:45:42.986Z,8.10
2022-10-12T20:48:09.901Z,8.10
2022-10-12T20:50:38.226Z,8.10
2022-10-12T20:53:05.153Z,8.10
2022-10-12T20:55:31.945Z,8.10
2022-10-12T20:57:58.733Z,8.20
2022-10-12T21:00:25.637Z,8.20
2022-10-12T21:02:52.421Z,8.20
2022-10-12T21:05:19.203Z,8.20
2022-10-12T21:07:46.578Z,8.30
2022-10-12T21:10:13.685Z,8.30
2022-10-12T21:12:40.461Z,8.40
2022-10-12T21:15:07.700Z,8.40
2022-10-12T21:17:34.522Z,8.50
2022-10-12T21:20:01.362Z,8.50
2022-10-12T21:22:28.156Z,8.60
2022-10-12T21:24:55.083Z,8.70
2022-10-12T21:27:21.964Z,8.70
2022-10-12T21:29:48.823Z,8.70
2022-10-12T21:32:16.058Z,8.80
2022-10-12T21:34:43.045Z,8.80
2022-10-12T21:37:09.942Z,8.80
2022-10-12T21:39:36.773Z,8.90
2022-10-12T21:42:03.789Z,8.90
2022-10-12T21:44:30.615Z,9.00
2022-10-12T21:46:57.786Z,9.00
2022-10-12T21:49:24.685Z,9.00
2022-10-12T21:51:53.005Z,9.00
2022-10-12T21:54:19.844Z,8.90
2022-10-12T21:56:46.712Z,9.00
2022-10-12T21:59:13.554Z,9.10
2022-10-12T22:01:41.635Z,9.00
2022-10-12T22:04:13.446Z,9.00
2022-10-12T22:06:40.626Z,9.00
2022-10-12T22:09:11.732Z,9.10
2022-10-12T22:11:38.628Z,9.20
2022-10-12T22:14:11.962Z,9.20
2022-10-12T22:16:39.034Z,9.30
2022-10-12T22:19:08.844Z,9.40
2022-10-12T22:21:36.494Z,9.50
2022-10-12T22:24:03.885Z,9.50
2022-10-12T22:26:30.879Z,9.60
2022-10-12T22:28:59.269Z,9.60
2022-10-12T22:31:26.369Z,9.60
2022-10-12T22:33:54.568Z,9.60
2022-10-12T22:36:21.424Z,9.70
2022-10-12T22:38:48.288Z,9.60
2022-10-12T22:41:17.989Z,9.60
2022-10-12T22:43:49.166Z,9.70
2022-10-12T22:46:16.748Z,9.70
2022-10-12T22:48:43.719Z,9.70
2022-10-12T22:51:17.199Z,9.80
2022-10-12T22:53:44.097Z,9.80
2022-10-12T22:56:16.586Z,9.80
2022-10-12T22:58:44.279Z,9.90
2022-10-12T23:01:13.576Z,9.90
2022-10-12T23:03:40.752Z,9.90
2022-10-12T23:06:12.841Z,10.00
2022-10-12T23:08:40.457Z,10.00
2022-10-12T23:11:10.412Z,9.90
2022-10-12T23:13:38.544Z,9.80
2022-10-12T23:16:13.461Z,9.70
2022-10-12T23:18:41.127Z,9.70
2022-10-12T23:21:13.806Z,9.80
2022-10-12T23:23:41.521Z,9.80
2022-10-12T23:26:15.344Z,9.70
2022-10-12T23:28:42.905Z,9.70
2022-10-12T23:31:18.522Z,9.80
2022-10-12T23:33:45.697Z,9.80
2022-10-12T23:36:15.612Z,9.90
2022-10-12T23:38:44.306Z,9.90
2022-10-12T23:41:12.573Z,9.90
2022-10-12T23:43:39.797Z,10.00
2022-10-12T23:46:06.976Z,10.00
2022-10-12T23:48:34.166Z,10.00
2022-10-12T23:51:01.125Z,10.10
2022-10-12T23:53:28.477Z,10.10
2022-10-12T23:55:55.354Z,10.20
2022-10-12T23:58:22.243Z,10.20
